Latest Weather Observations for Shepparton

IDV60801

Issued at 2:02 pm EST Wednesday 2 September 2015 (issued every 30 minutes, with the page automatically refreshed every 10 minutes)

About weather observations | Map of weather stations | Latest weather observations for VIC | Other Formats
Station Details ID: 081125 Name: SHEPPARTON AIRPORT Lat: -36.43 Lon: 145.39 Height: 113.9 m
Data from the previous 72 hours. | See also: Recent months at Shepparton
Date/Time
EST
Temp
°C
App
Temp
°C
Dew
Point
Rel
Hum
%
Delta-T
°C
Wind Press
QNH
hPa
Press
MSL
hPa
Rain
since 9 am
mm
Dir
 
Spd
km/h
Gust
km/h
Spd
kts
Gust
kts
02/02:00pm 16.4 11.0 7.9 57 4.3 NE 26 35 14 19 1007.8 1007.9 0.0
02/01:30pm 16.0 10.1 7.7 58 4.2 NE 28 39 15 21 1008.4 1008.5 0.0
02/01:00pm 16.0 10.1 7.7 58 4.2 NE 28 41 15 22 1009.4 1009.5 0.0
02/12:30pm 16.5 11.1 8.0 57 4.3 NE 26 39 14 21 1010.2 1010.2 0.0
02/12:00pm 16.2 10.3 7.4 56 4.4 NE 28 37 15 20 1011.0 1011.0 0.0
02/11:30am 15.4 9.9 7.4 59 4.0 NE 26 39 14 21 1011.8 1011.8 0.0
02/11:00am 14.3 8.6 6.9 61 3.6 ENE 26 37 14 20 1012.2 1012.2 0.0
02/10:30am 13.7 8.4 6.8 63 3.4 NE 24 32 13 17 1012.7 1012.7 0.0
02/10:00am 12.8 7.4 6.4 65 3.1 NE 24 33 13 18 1013.2 1013.2 0.0
02/09:30am 12.0 6.6 6.5 69 2.6 NE 24 33 13 18 1013.8 1013.8 0.0
02/09:00am 10.8 5.3 5.8 71 2.3 NE 24 37 13 20 1014.0 1014.0 0.0
02/08:30am 9.6 5.1 6.1 79 1.6 NE 19 24 10 13 1014.4 1014.4 0.0
02/08:00am 8.0 4.1 5.5 84 1.1 ENE 15 20 8 11 1014.5 1014.6 0.0
02/07:30am 7.0 3.0 5.0 87 0.9 ENE 15 19 8 10 1014.3 1014.3 0.0
02/07:00am 6.4 3.1 4.7 89 0.7 ENE 11 17 6 9 1014.4 1014.4 0.0
02/06:30am 6.1 2.8 4.6 90 0.7 ENE 11 15 6 8 1014.4 1014.4 0.0
02/06:00am 5.5 2.6 4.5 93 0.4 E 9 13 5 7 1014.3 1014.3 0.0
02/05:30am 5.8 2.5 4.4 91 0.6 E 11 15 6 8 1014.1 1014.1 0.0
02/05:00am 5.6 2.8 5.0 96 0.3 E 9 13 5 7 1014.3 1014.3 0.0
02/04:30am 4.8 1.9 4.4 97 0.2 E 9 15 5 8 1014.3 1014.3 0.0
02/04:00am 3.5 1.7 3.2 98 0.1 E 2 9 1 5 1014.3 1014.3 0.0
02/03:30am 3.3 1.4 3.0 98 0.1 ENE 2 9 1 5 1014.4 1014.4 0.0
02/03:00am 3.1 0.4 2.8 98 0.1 ESE 6 13 3 7 1014.6 1014.7 0.0
02/02:30am 3.1 0.4 2.7 97 0.2 ESE 6 7 3 4 1015.0 1015.1 0.0
02/02:00am 3.7 2.2 3.1 96 0.2 CALM 0 0 0 0 1015.3 1015.4 0.0
02/01:30am 3.9 2.4 3.2 95 0.3 CALM 0 0 0 0 1015.6 1015.7 0.0
02/01:00am 4.5 2.0 3.8 95 0.3 E 6 6 3 3 1015.6 1015.7 0.0
02/12:30am 3.9 1.3 3.0 94 0.4 ESE 6 11 3 6 1015.7 1015.8 0.0
02/12:00am 3.6 0.2 2.1 90 0.6 ESE 9 9 5 5 1015.8 1015.9 0.0
 
Date/Time
EST
Temp
°C
App
Temp
°C
Dew
Point
Rel
Hum
%
Delta-T
°C
Wind Press
QNH
hPa
Press
MSL
hPa
Rain
since 9 am
mm
Dir
 
Spd
km/h
Gust
km/h
Spd
kts
Gust
kts
01/11:30pm 5.4 2.9 3.9 90 0.6 NE 6 9 3 5 1015.8 1015.9 0.0
01/11:00pm 4.7 2.5 3.2 90 0.6 ENE 4 9 2 5 1015.7 1015.8 0.0
01/10:30pm 5.5 3.0 3.5 87 0.8 ESE 6 7 3 4 1015.7 1015.8 0.0
01/10:00pm 5.7 2.7 4.2 90 0.6 E 9 13 5 7 1015.6 1015.7 0.0
01/09:30pm 5.3 3.9 3.8 90 0.6 CALM 0 0 0 0 1015.8 1015.9 0.0
01/09:00pm 5.7 3.6 3.7 87 0.8 E 4 9 2 5 1015.7 1015.8 0.0
01/08:30pm 6.6 5.0 4.4 86 1.0 ENE 2 7 1 4 1015.6 1015.7 0.0
01/08:00pm 7.1 4.6 3.9 80 1.4 E 6 9 3 5 1015.4 1015.5 0.0
01/07:30pm 9.1 6.6 4.7 74 2.0 ENE 7 9 4 5 1015.1 1015.2 0.0
01/07:00pm 9.4 7.0 5.2 75 1.9 ENE 7 9 4 5 1014.9 1015.0 0.0
01/06:30pm 9.1 6.2 4.7 74 2.0 E 9 11 5 6 1014.7 1014.8 0.0
01/06:00pm 9.9 6.8 5.5 74 2.0 E 11 13 6 7 1014.5 1014.6 0.0
01/05:30pm 11.3 8.3 5.8 69 2.6 ESE 11 15 6 8 1014.4 1014.4 0.0
01/05:00pm 13.0 10.9 5.9 62 3.4 SE 6 9 3 5 1014.3 1014.3 0.0
01/04:30pm 14.2 12.3 5.0 54 4.3 N 4 11 2 6 1014.4 1014.4 0.0
01/04:00pm 13.9 11.4 4.5 53 4.4 N 7 15 4 8 1014.3 1014.3 0.0
01/03:30pm 14.0 11.1 4.6 53 4.4 N 9 13 5 7 1014.6 1014.7 0.0
01/03:00pm 14.3 12.1 5.1 54 4.3 NNW 6 15 3 8 1014.9 1015.0 0.0
01/02:30pm 14.1 11.0 3.8 50 4.7 NW 9 17 5 9 1015.2 1015.3 0.0
01/02:00pm 12.9 10.7 3.3 52 4.3 NNW 4 11 2 6 1015.6 1015.7 0.0
01/01:30pm 12.6 10.8 3.5 54 4.1 SW 2 7 1 4 1015.9 1016.0 0.0
01/01:00pm 12.3 9.9 4.3 58 3.6 SSE 6 11 3 6 1016.1 1016.2 0.0
01/12:30pm 12.4 10.3 4.1 57 3.8 W 4 13 2 7 1016.7 1016.8 0.0
01/12:00pm 11.1 9.1 4.6 64 2.9 W 4 13 2 7 1017.0 1017.1 0.0
01/11:30am 10.1 8.3 5.3 72 2.2 SW 4 9 2 5 1017.5 1017.6 0.0
01/11:00am 8.3 7.4 7.7 96 0.3 SW 2 7 1 4 1017.9 1018.0 0.0
01/10:42am 6.8 5.3 6.7 99 0.0 SSE 4 7 2 4 1017.9 1018.0 0.0
01/10:30am 5.8 4.4 5.7 99 0.0 SSE 2 7 1 4 1018.1 1018.2 0.0
01/10:12am 5.4 4.3 5.3 99 0.0 CALM 0 6 0 3 1018.3 1018.4 0.0
01/10:00am 4.4 3.1 4.3 99 0.0 CALM 0 6 0 3 1018.4 1018.5 0.0
01/09:43am 3.5 2.1 3.4 99 0.0 CALM 0 6 0 3 1018.3 1018.5 0.0
01/09:30am 2.8 1.2 2.7 99 0.0 CALM 0 0 0 0 1018.2 1018.4 0.0
01/09:00am 1.8 0.1 1.7 99 0.0 CALM 0 0 0 0 1018.0 1018.2 0.0
01/08:30am 0.8 -1.1 0.7 99 0.0 CALM 0 6 0 3 1017.9 1018.1 0.0
01/08:00am 0.0 -2.0 -0.1 99 0.0 CALM 0 0 0 0 1017.5 1017.7 0.0
01/07:30am -0.8 -2.9 -0.9 99 0.0 CALM 0 0 0 0 1017.3 1017.5 0.0
01/07:00am -0.9 -3.0 -1.0 99 0.0 CALM 0 0 0 0 1017.1 1017.3 0.0
01/06:30am -0.8 -2.9 -0.9 99 0.0 CALM 0 0 0 0 1017.0 1017.2 0.0
01/06:00am -0.4 -2.5 -0.5 99 0.0 CALM 0 0 0 0 1016.6 1016.8 0.0
01/05:30am -0.6 -2.7 -0.7 99 0.0 CALM 0 0 0 0 1016.7 1016.9 0.0
01/05:00am -0.9 -3.0 -1.0 99 0.0 CALM 0 0 0 0 1016.4 1016.6 0.0
01/04:51am -1.5 -3.7 -1.6 99 0.0 CALM 0 0 0 0 1016.2 1016.4 0.0
01/04:50am -1.5 -3.7 -1.6 99 0.0 CALM 0 0 0 0 1016.2 1016.4 0.0
01/04:31am -0.7 -2.8 -0.8 99 0.0 CALM 0 0 0 0 1016.2 1016.4 0.0
01/04:30am -0.5 -2.6 -0.6 99 0.0 CALM 0 0 0 0 1016.2 1016.4 0.0
01/04:23am -0.3 -2.3 -0.4 99 0.0 CALM 0 0 0 0 1016.3 1016.5 0.0
01/04:19am -0.2 -2.2 -0.3 99 0.0 CALM 0 0 0 0 1016.3 1016.5 0.0
01/04:00am -0.2 -2.2 -0.3 99 0.0 CALM 0 0 0 0 1016.5 1016.7 0.0
01/03:43am 0.0 -2.0 -0.1 99 0.0 CALM 0 0 0 0 1016.5 1016.7 0.0
01/03:30am 0.6 -1.3 0.5 99 0.0 CALM 0 0 0 0 1016.5 1016.7 0.0
01/03:05am 0.1 -1.9 0.0 99 0.0 CALM 0 0 0 0 1016.7 1016.9 0.0
01/03:00am 0.4 -1.5 0.3 99 0.0 CALM 0 0 0 0 1016.8 1017.0 0.0
01/02:46am 1.0 -0.8 0.9 99 0.0 CALM 0 0 0 0 1017.0 1017.2 0.0
01/02:30am 1.0 -0.8 0.9 99 0.0 CALM 0 0 0 0 1017.2 1017.4 0.0
01/02:17am 1.1 -0.7 1.0 99 0.0 CALM 0 0 0 0 1017.4 1017.6 0.0
01/02:00am 1.2 -0.6 0.9 98 0.1 CALM 0 0 0 0 1017.5 1017.7 0.0
01/01:30am 1.8 0.0 1.5 98 0.1 CALM 0 0 0 0 1017.6 1017.8 0.0
01/01:00am 2.3 0.6 1.9 97 0.2 CALM 0 0 0 0 1017.8 1018.0 0.0
01/12:30am 3.1 1.2 2.7 97 0.2 WSW 2 6 1 3 1017.9 1018.1 0.0
01/12:00am 2.9 -0.1 2.2 95 0.3 W 7 9 4 5 1017.9 1018.1 0.0
 
Date/Time
EST
Temp
°C
App
Temp
°C
Dew
Point
Rel
Hum
%
Delta-T
°C
Wind Press
QNH
hPa
Press
MSL
hPa
Rain
since 9 am
mm
Dir
 
Spd
km/h
Gust
km/h
Spd
kts
Gust
kts
31/11:30pm 2.9 -0.1 1.7 92 0.5 W 7 9 4 5 1017.9 1018.1 0.0
31/11:00pm 4.1 1.2 2.8 91 0.5 W 7 11 4 6 1017.8 1018.0 0.0
31/10:30pm 5.2 3.8 3.4 88 0.8 CALM 0 0 0 0 1017.8 1018.0 0.0
31/10:00pm 5.3 2.1 3.2 86 0.9 SSW 9 11 5 6 1018.1 1018.3 0.0
31/09:30pm 6.0 2.5 3.3 83 1.1 SSW 11 17 6 9 1018.1 1018.3 0.0
31/09:00pm 6.6 2.7 3.6 81 1.3 SSW 13 17 7 9 1018.1 1018.3 0.0
31/08:30pm 7.2 3.7 3.6 78 1.5 SSW 11 17 6 9 1017.9 1018.1 0.0
31/08:00pm 8.5 4.3 3.9 73 2.0 SSW 15 19 8 10 1017.7 1017.9 0.0
31/07:30pm 8.9 4.7 3.9 71 2.2 S 15 19 8 10 1017.5 1017.7 0.0
31/07:00pm 8.8 5.0 4.0 72 2.1 SSW 13 17 7 9 1017.4 1017.6 0.0
31/06:30pm 8.8 5.4 3.8 71 2.2 SSW 11 13 6 7 1017.2 1017.4 0.0
31/06:00pm 10.1 7.1 4.0 66 2.7 SSW 9 13 5 7 1017.1 1017.3 0.0
31/05:30pm 12.0 7.8 4.0 58 3.6 SSW 15 19 8 10 1017.1 1017.3 0.0
31/05:00pm 12.9 9.2 4.3 56 3.9 SW 13 19 7 10 1017.0 1017.2 0.0
31/04:30pm 13.0 9.3 4.2 55 4.0 SW 13 17 7 9 1017.0 1017.2 0.0
31/04:00pm 13.5 9.8 4.6 55 4.1 SSW 13 20 7 11 1017.0 1017.2 0.0
31/03:30pm 13.4 9.3 4.3 54 4.2 SW 15 20 8 11 1017.1 1017.3 0.0
31/03:00pm 12.9 8.3 3.6 53 4.2 SSW 17 22 9 12 1017.3 1017.5 0.0
31/02:30pm 12.8 9.0 4.0 55 4.0 SSW 13 20 7 11 1017.5 1017.7 0.0
31/02:00pm 12.2 7.2 3.4 55 3.9 SW 19 24 10 13 1017.9 1018.1 0.0
31/01:30pm 12.4 7.8 3.6 55 4.0 SW 17 22 9 12 1018.1 1018.3 0.0
31/01:00pm 12.1 8.0 4.6 60 3.4 SW 15 26 8 14 1018.5 1018.7 0.0
31/12:30pm 11.7 7.2 4.0 59 3.5 WSW 17 26 9 14 1018.9 1019.1 0.0
31/12:00pm 11.4 6.9 4.4 62 3.2 WSW 17 22 9 12 1019.4 1019.5 0.0
31/11:30am 11.0 8.0 4.2 63 3.1 SW 9 19 5 10 1019.6 1019.7 0.0
31/11:00am 10.5 6.0 4.4 66 2.7 S 17 22 9 12 1019.8 1019.9 0.0
31/10:30am 9.6 5.1 4.0 68 2.5 S 17 22 9 12 1020.0 1020.1 0.0
31/10:00am 9.0 4.8 3.6 69 2.3 S 15 20 8 11 1020.3 1020.4 0.0
31/09:30am 8.5 3.9 3.8 72 2.0 S 17 22 9 12 1020.3 1020.4 0.0
31/09:00am 7.8 3.6 3.7 75 1.8 S 15 20 8 11 1020.4 1020.6 0.0
31/08:30am 6.8 3.4 3.9 82 1.2 SSW 11 13 6 7 1020.5 1020.7 0.0
31/08:00am 5.4 2.3 3.7 89 0.7 SW 9 13 5 7 1020.3 1020.4 0.0
31/07:30am 3.1 -0.2 2.7 97 0.2 SW 9 11 5 6 1020.2 1020.3 0.0
31/07:00am 1.6 -1.6 1.0 96 0.2 SW 7 9 4 5 1019.9 1020.0 0.0
31/06:30am 2.2 -1.2 1.6 96 0.2 SW 9 9 5 5 1019.8 1019.9 0.0
31/06:00am 2.3 -1.1 1.6 95 0.3 SW 9 11 5 6 1019.9 1020.0 0.0
31/05:30am 2.9 -0.5 2.0 94 0.4 SW 9 13 5 7 1019.7 1019.8 0.0
31/05:00am 2.9 -0.9 2.0 94 0.4 SSW 11 13 6 7 1019.6 1019.7 0.0
31/04:30am 3.1 -0.3 2.1 93 0.4 SW 9 11 5 6 1019.7 1019.8 0.0
31/04:00am 3.6 0.2 2.1 90 0.6 SW 9 11 5 6 1019.6 1019.7 0.0
31/03:30am 3.1 0.1 1.8 91 0.5 SSW 7 9 4 5 1019.7 1019.8 0.0
31/03:00am 4.2 1.9 2.6 89 0.6 S 4 7 2 4 1019.9 1020.0 0.0
31/02:30am 3.9 0.6 2.3 89 0.6 S 9 11 5 6 1020.1 1020.2 0.0
31/02:00am 3.8 0.4 2.0 88 0.7 S 9 11 5 6 1020.3 1020.4 0.0
31/01:30am 4.3 0.6 2.5 88 0.7 S 11 15 6 8 1020.6 1020.8 0.0
31/01:00am 4.6 1.0 2.8 88 0.7 S 11 17 6 9 1020.8 1021.0 0.0
31/12:30am 5.1 1.9 2.8 85 0.9 S 9 13 5 7 1020.9 1021.1 0.0
31/12:00am 5.3 1.7 3.0 85 0.9 S 11 13 6 7 1020.8 1021.0 0.0
 
Date/Time
EST
Temp
°C
App
Temp
°C
Dew
Point
Rel
Hum
%
Delta-T
°C
Wind Press
QNH
hPa
Press
MSL
hPa
Rain
since 9 am
mm
Dir
 
Spd
km/h
Gust
km/h
Spd
kts
Gust
kts
30/11:30pm 6.0 1.4 3.5 84 1.1 S 17 22 9 12 1020.9 1021.1 0.0
30/11:00pm 6.4 2.2 3.7 83 1.1 S 15 20 8 11 1021.2 1021.4 0.0
30/10:30pm 7.0 2.4 3.8 80 1.4 SSW 17 22 9 12 1021.5 1021.7 0.0
30/10:00pm 7.5 2.6 4.1 79 1.5 SSW 19 26 10 14 1021.8 1022.0 0.0
30/09:30pm 7.9 2.9 4.5 79 1.5 SSW 20 28 11 15 1021.9 1022.1 0.0
30/09:00pm 8.1 2.7 4.7 79 1.5 SSW 22 30 12 16 1021.8 1022.0 0.0
30/08:30pm 8.4 3.5 5.0 79 1.5 SSW 20 28 11 15 1021.7 1021.9 0.0
30/08:00pm 8.6 3.8 4.6 76 1.8 SSW 19 28 10 15 1021.6 1021.8 0.0
30/07:30pm 8.9 3.9 4.5 74 2.0 SSW 20 26 11 14 1021.5 1021.7 0.0
30/07:00pm 9.2 4.3 4.2 71 2.2 SSW 19 26 10 14 1021.3 1021.5 0.0
30/06:30pm 9.7 4.9 4.5 70 2.3 SW 19 24 10 13 1021.2 1021.4 0.0
30/06:00pm 10.4 6.0 5.0 69 2.4 SW 17 20 9 11 1020.9 1021.1 0.0
30/05:30pm 11.4 6.5 5.1 65 2.9 SSW 20 32 11 17 1020.8 1021.0 0.0
30/05:00pm 12.3 7.4 5.2 62 3.3 SW 20 28 11 15 1020.7 1020.9 0.0
30/04:30pm 12.8 8.0 5.5 61 3.4 SSW 20 32 11 17 1020.7 1020.9 0.0
30/04:00pm 13.2 8.5 5.1 58 3.8 SSW 19 24 10 13 1020.8 1021.0 0.0
30/03:30pm 13.3 8.1 5.7 60 3.6 SW 22 30 12 16 1020.9 1021.1 0.0
30/03:00pm 13.3 8.4 5.2 58 3.8 SSW 20 30 11 16 1021.0 1021.2 0.0
30/02:30pm 12.7 7.0 5.1 60 3.5 SSW 24 32 13 17 1021.3 1021.5 0.0

Other Formats:

Comma delimited format used in spreadsheet applications
http://www.bom.gov.au/fwo/IDV60801/IDV60801.94875.axf

JavaScript Object Notation format (JSON) in row-major order
http://www.bom.gov.au/fwo/IDV60801/IDV60801.94875.json